Terminal Aerodrome Forecast
Issued by NWS Cleveland, OH

Home | Current Version | Previous Version | Graphics & Text | Print | Product List | Glossary On
Versions: 1 2 3 4 5 6 7 8 9 10 11 12 13 14 15 16 17 18
000
FTUS41 KCLE 220859 AAA
TAFMFD
TAF AMD
KMFD 220859Z 2209/2306 29008KT P6SM BKN025
      TEMPO 2209/2210 SCT025
     FM221000 26007KT P6SM BKN035
     FM221400 27011G20KT P6SM SCT050
     FM222200 23007KT P6SM FEW250=

USA.gov is the U.S. government's official web portal to all federal, state and local government web resources and services.